Aviation Digital Data Service (ADDS)

Output produced by METARs form (1337 UTC 28 September 2016)
found at http://aviationweather.gov/adds/metars/
 
KBGR 281323Z 2813/2912 04008KT P6SM BKN025 
     FM281500 01007KT P6SM SCT025 BKN035 
     FM290800 02008KT P6SM SCT008 BKN015